sensor_id;sensor_type;location;lat;lon;timestamp;temperature;humidity
20750;DHT22;10535;50.664;4.564;2022-07-04T00:00:47;14.10;99.90
20750;DHT22;10535;50.664;4.564;2022-07-04T00:03:42;14.10;99.90
20750;DHT22;10535;50.664;4.564;2022-07-04T00:06:30;14.00;99.90
20750;DHT22;10535;50.664;4.564;2022-07-04T00:09:16;13.80;99.90
20750;DHT22;10535;50.664;4.564;2022-07-04T00:11:49;13.90;99.90
20750;DHT22;10535;50.664;4.564;2022-07-04T00:14:18;13.90;99.90
20750;DHT22;10535;50.664;4.564;2022-07-04T00:16:47;13.80;99.90
20750;DHT22;10535;50.664;4.564;2022-07-04T00:19:20;13.70;99.90
20750;DHT22;10535;50.664;4.564;2022-07-04T00:21:55;13.70;99.90
20750;DHT22;10535;50.664;4.564;2022-07-04T00:24:23;13.80;99.90
20750;DHT22;10535;50.664;4.564;2022-07-04T00:26:48;13.60;99.90
20750;DHT22;10535;50.664;4.564;2022-07-04T00:29:16;13.60;99.90
20750;DHT22;10535;50.664;4.564;2022-07-04T00:31:47;13.60;99.90
20750;DHT22;10535;50.664;4.564;2022-07-04T00:34:13;13.70;99.90
20750;DHT22;10535;50.664;4.564;2022-07-04T00:36:40;13.70;99.90
20750;DHT22;10535;50.664;4.564;2022-07-04T00:39:05;13.60;99.90
20750;DHT22;10535;50.664;4.564;2022-07-04T00:41:36;13.50;99.90
20750;DHT22;10535;50.664;4.564;2022-07-04T00:44:06;13.50;99.90
20750;DHT22;10535;50.664;4.564;2022-07-04T00:46:34;13.50;99.90
20750;DHT22;10535;50.664;4.564;2022-07-04T00:49:03;13.40;99.90
20750;DHT22;10535;50.664;4.564;2022-07-04T00:51:29;13.50;99.90
20750;DHT22;10535;50.664;4.564;2022-07-04T00:53:56;13.40;99.90
20750;DHT22;10535;50.664;4.564;2022-07-04T00:56:23;13.40;99.90
20750;DHT22;10535;50.664;4.564;2022-07-04T00:58:50;13.40;99.90
20750;DHT22;10535;50.664;4.564;2022-07-04T01:01:42;13.50;99.90
20750;DHT22;10535;50.664;4.564;2022-07-04T01:04:34;13.40;99.90
20750;DHT22;10535;50.664;4.564;2022-07-04T01:07:30;13.30;99.90
20750;DHT22;10535;50.664;4.564;2022-07-04T01:10:13;13.30;99.90
20750;DHT22;10535;50.664;4.564;2022-07-04T01:12:46;13.10;99.90
20750;DHT22;10535;50.664;4.564;2022-07-04T01:15:40;13.10;99.90
20750;DHT22;10535;50.664;4.564;2022-07-04T01:18:38;13.00;99.90
20750;DHT22;10535;50.664;4.564;2022-07-04T01:21:16;12.90;99.90
20750;DHT22;10535;50.664;4.564;2022-07-04T01:23:56;13.00;99.90
20750;DHT22;10535;50.664;4.564;2022-07-04T01:26:30;13.00;99.90
20750;DHT22;10535;50.664;4.564;2022-07-04T01:28:57;12.90;99.90
20750;DHT22;10535;50.664;4.564;2022-07-04T01:31:23;12.90;99.90
20750;DHT22;10535;50.664;4.564;2022-07-04T01:34:17;12.90;99.90
20750;DHT22;10535;50.664;4.564;2022-07-04T01:37:06;13.00;99.90
20750;DHT22;10535;50.664;4.564;2022-07-04T01:39:37;12.90;99.90
20750;DHT22;10535;50.664;4.564;2022-07-04T01:42:12;12.90;99.90
20750;DHT22;10535;50.664;4.564;2022-07-04T01:44:45;12.80;99.90
20750;DHT22;10535;50.664;4.564;2022-07-04T01:47:18;12.80;99.90
20750;DHT22;10535;50.664;4.564;2022-07-04T01:49:52;12.80;99.90
20750;DHT22;10535;50.664;4.564;2022-07-04T01:52:19;12.80;99.90
20750;DHT22;10535;50.664;4.564;2022-07-04T01:55:08;12.80;99.90
20750;DHT22;10535;50.664;4.564;2022-07-04T01:57:34;12.80;99.90
20750;DHT22;10535;50.664;4.564;2022-07-04T02:00:00;12.70;99.90
20750;DHT22;10535;50.664;4.564;2022-07-04T02:02:46;12.70;99.90
20750;DHT22;10535;50.664;4.564;2022-07-04T02:05:12;12.70;99.90
20750;DHT22;10535;50.664;4.564;2022-07-04T02:07:42;12.70;99.90
20750;DHT22;10535;50.664;4.564;2022-07-04T02:10:13;12.70;99.90
20750;DHT22;10535;50.664;4.564;2022-07-04T02:12:40;12.70;99.90
20750;DHT22;10535;50.664;4.564;2022-07-04T02:15:25;12.80;99.90
20750;DHT22;10535;50.664;4.564;2022-07-04T02:17:50;12.70;99.90
20750;DHT22;10535;50.664;4.564;2022-07-04T02:20:16;12.60;99.90
20750;DHT22;10535;50.664;4.564;2022-07-04T02:22:42;12.50;99.90
20750;DHT22;10535;50.664;4.564;2022-07-04T02:25:11;12.30;99.90
20750;DHT22;10535;50.664;4.564;2022-07-04T02:27:37;12.30;99.90
20750;DHT22;10535;50.664;4.564;2022-07-04T02:30:15;12.30;99.90
20750;DHT22;10535;50.664;4.564;2022-07-04T02:32:42;12.30;99.90
20750;DHT22;10535;50.664;4.564;2022-07-04T02:35:23;12.30;99.90
20750;DHT22;10535;50.664;4.564;2022-07-04T02:38:00;12.20;99.90
20750;DHT22;10535;50.664;4.564;2022-07-04T02:41:21;12.30;99.90
20750;DHT22;10535;50.664;4.564;2022-07-04T02:43:47;12.20;99.90
20750;DHT22;10535;50.664;4.564;2022-07-04T02:46:22;12.10;99.90
20750;DHT22;10535;50.664;4.564;2022-07-04T02:49:09;12.20;99.90
20750;DHT22;10535;50.664;4.564;2022-07-04T02:51:36;12.20;99.90
20750;DHT22;10535;50.664;4.564;2022-07-04T02:54:22;12.20;99.90
20750;DHT22;10535;50.664;4.564;2022-07-04T02:56:48;12.10;99.90
20750;DHT22;10535;50.664;4.564;2022-07-04T02:59:19;12.10;99.90
20750;DHT22;10535;50.664;4.564;2022-07-04T03:01:45;12.10;99.90
20750;DHT22;10535;50.664;4.564;2022-07-04T03:04:31;12.20;99.90
20750;DHT22;10535;50.664;4.564;2022-07-04T03:06:58;12.10;99.90
20750;DHT22;10535;50.664;4.564;2022-07-04T03:09:25;12.10;99.90
20750;DHT22;10535;50.664;4.564;2022-07-04T03:11:53;12.00;99.90
20750;DHT22;10535;50.664;4.564;2022-07-04T03:14:20;12.10;99.90
20750;DHT22;10535;50.664;4.564;2022-07-04T03:16:50;12.20;99.90
20750;DHT22;10535;50.664;4.564;2022-07-04T03:19:18;12.20;99.90
20750;DHT22;10535;50.664;4.564;2022-07-04T03:21:45;12.10;99.90
20750;DHT22;10535;50.664;4.564;2022-07-04T03:24:11;12.00;99.90
20750;DHT22;10535;50.664;4.564;2022-07-04T03:26:37;12.00;99.90
20750;DHT22;10535;50.664;4.564;2022-07-04T03:29:03;12.00;99.90
20750;DHT22;10535;50.664;4.564;2022-07-04T03:31:30;11.90;99.90
20750;DHT22;10535;50.664;4.564;2022-07-04T03:33:56;11.80;99.90
20750;DHT22;10535;50.664;4.564;2022-07-04T03:36:23;11.80;99.90
20750;DHT22;10535;50.664;4.564;2022-07-04T03:38:50;11.80;99.90
20750;DHT22;10535;50.664;4.564;2022-07-04T03:41:31;11.80;99.90
20750;DHT22;10535;50.664;4.564;2022-07-04T03:43:57;11.80;99.90
20750;DHT22;10535;50.664;4.564;2022-07-04T03:46:23;11.80;99.90
20750;DHT22;10535;50.664;4.564;2022-07-04T03:49:11;12.00;99.90
20750;DHT22;10535;50.664;4.564;2022-07-04T03:51:46;12.10;99.90
20750;DHT22;10535;50.664;4.564;2022-07-04T03:54:35;12.00;99.90
20750;DHT22;10535;50.664;4.564;2022-07-04T03:57:01;11.90;99.90
20750;DHT22;10535;50.664;4.564;2022-07-04T03:59:46;11.90;99.90
20750;DHT22;10535;50.664;4.564;2022-07-04T04:02:20;12.00;99.90
20750;DHT22;10535;50.664;4.564;2022-07-04T04:04:46;12.10;99.90
20750;DHT22;10535;50.664;4.564;2022-07-04T04:07:31;12.20;99.90
20750;DHT22;10535;50.664;4.564;2022-07-04T04:09:58;12.20;99.90
20750;DHT22;10535;50.664;4.564;2022-07-04T04:12:28;12.20;99.90
20750;DHT22;10535;50.664;4.564;2022-07-04T04:15:13;12.20;99.90
20750;DHT22;10535;50.664;4.564;2022-07-04T04:18:06;12.20;99.90
20750;DHT22;10535;50.664;4.564;2022-07-04T04:20:31;12.40;99.90
20750;DHT22;10535;50.664;4.564;2022-07-04T04:23:00;12.40;99.90
20750;DHT22;10535;50.664;4.564;2022-07-04T04:25:31;12.40;99.90
20750;DHT22;10535;50.664;4.564;2022-07-04T04:28:09;12.50;99.90
20750;DHT22;10535;50.664;4.564;2022-07-04T04:30:58;12.40;99.90
20750;DHT22;10535;50.664;4.564;2022-07-04T04:33:26;12.40;99.90
20750;DHT22;10535;50.664;4.564;2022-07-04T04:35:58;12.50;99.90
20750;DHT22;10535;50.664;4.564;2022-07-04T04:38:28;12.70;99.90
20750;DHT22;10535;50.664;4.564;2022-07-04T04:41:03;12.90;99.90
20750;DHT22;10535;50.664;4.564;2022-07-04T04:43:45;12.90;99.90
20750;DHT22;10535;50.664;4.564;2022-07-04T04:46:24;13.00;99.90
20750;DHT22;10535;50.664;4.564;2022-07-04T04:48:53;13.10;99.90
20750;DHT22;10535;50.664;4.564;2022-07-04T04:51:24;13.10;99.90
20750;DHT22;10535;50.664;4.564;2022-07-04T04:53:51;13.10;99.90
20750;DHT22;10535;50.664;4.564;2022-07-04T04:56:17;13.20;99.90
20750;DHT22;10535;50.664;4.564;2022-07-04T04:58:47;13.30;99.90
20750;DHT22;10535;50.664;4.564;2022-07-04T05:01:13;13.40;99.90
20750;DHT22;10535;50.664;4.564;2022-07-04T05:03:39;13.60;99.90
20750;DHT22;10535;50.664;4.564;2022-07-04T05:06:05;14.20;99.90
20750;DHT22;10535;50.664;4.564;2022-07-04T05:08:31;14.80;99.90
20750;DHT22;10535;50.664;4.564;2022-07-04T05:10:57;15.20;99.90
20750;DHT22;10535;50.664;4.564;2022-07-04T05:13:24;15.80;99.90
20750;DHT22;10535;50.664;4.564;2022-07-04T05:15:53;16.50;99.90
20750;DHT22;10535;50.664;4.564;2022-07-04T05:18:40;17.10;99.90
20750;DHT22;10535;50.664;4.564;2022-07-04T05:21:41;17.90;99.90
20750;DHT22;10535;50.664;4.564;2022-07-04T05:24:19;18.10;99.90
20750;DHT22;10535;50.664;4.564;2022-07-04T05:27:08;18.90;99.90
20750;DHT22;10535;50.664;4.564;2022-07-04T05:29:41;19.50;99.90
20750;DHT22;10535;50.664;4.564;2022-07-04T05:34:44;19.40;99.90
20750;DHT22;10535;50.664;4.564;2022-07-04T05:37:21;19.60;99.90
20750;DHT22;10535;50.664;4.564;2022-07-04T05:39:57;19.50;99.90
20750;DHT22;10535;50.664;4.564;2022-07-04T05:42:25;19.50;99.90
20750;DHT22;10535;50.664;4.564;2022-07-04T05:45:04;19.90;99.90
20750;DHT22;10535;50.664;4.564;2022-07-04T05:47:33;20.00;99.90
20750;DHT22;10535;50.664;4.564;2022-07-04T05:50:03;20.50;99.90
20750;DHT22;10535;50.664;4.564;2022-07-04T05:52:54;21.00;99.90
20750;DHT22;10535;50.664;4.564;2022-07-04T05:55:27;21.50;99.90
20750;DHT22;10535;50.664;4.564;2022-07-04T05:57:52;22.00;99.90
20750;DHT22;10535;50.664;4.564;2022-07-04T06:00:20;22.20;99.90
20750;DHT22;10535;50.664;4.564;2022-07-04T06:02:59;22.10;99.90
20750;DHT22;10535;50.664;4.564;2022-07-04T06:05:34;22.00;99.90
20750;DHT22;10535;50.664;4.564;2022-07-04T06:08:01;21.60;99.90
20750;DHT22;10535;50.664;4.564;2022-07-04T06:10:33;21.50;99.90
20750;DHT22;10535;50.664;4.564;2022-07-04T06:13:02;21.10;99.90
20750;DHT22;10535;50.664;4.564;2022-07-04T06:15:33;20.90;99.90
20750;DHT22;10535;50.664;4.564;2022-07-04T06:18:00;21.40;99.90
20750;DHT22;10535;50.664;4.564;2022-07-04T06:20:28;21.30;99.90
20750;DHT22;10535;50.664;4.564;2022-07-04T06:22:56;21.30;99.90
20750;DHT22;10535;50.664;4.564;2022-07-04T06:25:23;21.80;99.90
20750;DHT22;10535;50.664;4.564;2022-07-04T06:27:51;21.90;99.90
20750;DHT22;10535;50.664;4.564;2022-07-04T06:30:18;22.30;99.90
20750;DHT22;10535;50.664;4.564;2022-07-04T06:32:52;22.90;99.90
20750;DHT22;10535;50.664;4.564;2022-07-04T06:35:23;23.20;99.90
20750;DHT22;10535;50.664;4.564;2022-07-04T06:38:08;23.50;99.90
20750;DHT22;10535;50.664;4.564;2022-07-04T06:40:36;23.90;99.90
20750;DHT22;10535;50.664;4.564;2022-07-04T06:43:09;24.20;99.90
20750;DHT22;10535;50.664;4.564;2022-07-04T06:45:38;24.30;99.90
20750;DHT22;10535;50.664;4.564;2022-07-04T06:48:06;24.70;99.90
20750;DHT22;10535;50.664;4.564;2022-07-04T06:51:15;24.60;99.90
20750;DHT22;10535;50.664;4.564;2022-07-04T06:54:13;25.00;99.90
20750;DHT22;10535;50.664;4.564;2022-07-04T06:56:40;24.80;99.90
20750;DHT22;10535;50.664;4.564;2022-07-04T06:59:07;25.40;99.90
20750;DHT22;10535;50.664;4.564;2022-07-04T07:01:37;25.20;99.90
20750;DHT22;10535;50.664;4.564;2022-07-04T07:04:24;25.00;99.90
20750;DHT22;10535;50.664;4.564;2022-07-04T07:06:50;25.80;99.90
20750;DHT22;10535;50.664;4.564;2022-07-04T07:09:16;25.80;99.90
20750;DHT22;10535;50.664;4.564;2022-07-04T07:11:50;25.90;99.90
20750;DHT22;10535;50.664;4.564;2022-07-04T07:14:17;25.90;99.90
20750;DHT22;10535;50.664;4.564;2022-07-04T07:16:44;25.70;99.90
20750;DHT22;10535;50.664;4.564;2022-07-04T07:19:14;26.30;99.90
20750;DHT22;10535;50.664;4.564;2022-07-04T07:21:40;26.40;99.90
20750;DHT22;10535;50.664;4.564;2022-07-04T07:24:10;26.20;99.90
20750;DHT22;10535;50.664;4.564;2022-07-04T07:26:37;26.20;99.90
20750;DHT22;10535;50.664;4.564;2022-07-04T07:29:03;26.50;99.90
20750;DHT22;10535;50.664;4.564;2022-07-04T07:31:34;26.00;99.90
20750;DHT22;10535;50.664;4.564;2022-07-04T07:34:18;26.30;99.90
20750;DHT22;10535;50.664;4.564;2022-07-04T07:36:45;25.80;99.90
20750;DHT22;10535;50.664;4.564;2022-07-04T07:39:11;25.50;99.90
20750;DHT22;10535;50.664;4.564;2022-07-04T07:41:37;25.20;99.90
20750;DHT22;10535;50.664;4.564;2022-07-04T07:44:02;25.40;99.90
20750;DHT22;10535;50.664;4.564;2022-07-04T07:46:28;25.30;99.90
20750;DHT22;10535;50.664;4.564;2022-07-04T07:49:07;25.70;99.90
20750;DHT22;10535;50.664;4.564;2022-07-04T07:51:40;25.90;99.90
20750;DHT22;10535;50.664;4.564;2022-07-04T07:54:06;25.70;99.90
20750;DHT22;10535;50.664;4.564;2022-07-04T07:56:34;25.40;99.90
20750;DHT22;10535;50.664;4.564;2022-07-04T07:59:00;25.10;99.90
20750;DHT22;10535;50.664;4.564;2022-07-04T08:01:35;24.70;99.90
20750;DHT22;10535;50.664;4.564;2022-07-04T08:04:08;24.00;99.90
20750;DHT22;10535;50.664;4.564;2022-07-04T08:07:05;23.90;99.90
20750;DHT22;10535;50.664;4.564;2022-07-04T08:09:31;23.70;99.90
20750;DHT22;10535;50.664;4.564;2022-07-04T08:11:58;23.50;99.90
20750;DHT22;10535;50.664;4.564;2022-07-04T08:14:24;23.50;99.90
20750;DHT22;10535;50.664;4.564;2022-07-04T08:16:50;23.50;99.90
20750;DHT22;10535;50.664;4.564;2022-07-04T08:19:25;23.50;99.90
20750;DHT22;10535;50.664;4.564;2022-07-04T08:21:52;23.30;99.90
20750;DHT22;10535;50.664;4.564;2022-07-04T08:24:18;22.80;99.90
20750;DHT22;10535;50.664;4.564;2022-07-04T08:26:45;22.80;99.90
20750;DHT22;10535;50.664;4.564;2022-07-04T08:29:16;22.60;99.90
20750;DHT22;10535;50.664;4.564;2022-07-04T08:31:42;22.70;99.90
20750;DHT22;10535;50.664;4.564;2022-07-04T08:34:08;22.80;99.90
20750;DHT22;10535;50.664;4.564;2022-07-04T08:36:34;22.70;99.90
20750;DHT22;10535;50.664;4.564;2022-07-04T08:39:00;22.40;99.90
20750;DHT22;10535;50.664;4.564;2022-07-04T08:41:27;22.50;99.90
20750;DHT22;10535;50.664;4.564;2022-07-04T08:43:55;22.50;99.90
20750;DHT22;10535;50.664;4.564;2022-07-04T08:46:25;22.70;99.90
20750;DHT22;10535;50.664;4.564;2022-07-04T08:48:52;22.80;99.90
20750;DHT22;10535;50.664;4.564;2022-07-04T08:54:05;22.50;99.90
20750;DHT22;10535;50.664;4.564;2022-07-04T08:56:52;22.50;99.90
20750;DHT22;10535;50.664;4.564;2022-07-04T08:59:40;22.80;99.90
20750;DHT22;10535;50.664;4.564;2022-07-04T09:02:13;22.70;99.90
20750;DHT22;10535;50.664;4.564;2022-07-04T09:04:44;22.90;99.90
20750;DHT22;10535;50.664;4.564;2022-07-04T09:07:12;23.00;99.90
20750;DHT22;10535;50.664;4.564;2022-07-04T09:09:58;22.80;99.90
20750;DHT22;10535;50.664;4.564;2022-07-04T09:12:31;22.60;99.90
20750;DHT22;10535;50.664;4.564;2022-07-04T09:15:20;22.90;99.90
20750;DHT22;10535;50.664;4.564;2022-07-04T09:17:50;23.10;99.90
20750;DHT22;10535;50.664;4.564;2022-07-04T09:20:17;23.10;99.90
20750;DHT22;10535;50.664;4.564;2022-07-04T09:22:51;23.10;99.90
20750;DHT22;10535;50.664;4.564;2022-07-04T09:25:18;23.10;99.90
20750;DHT22;10535;50.664;4.564;2022-07-04T09:27:46;23.30;99.90
20750;DHT22;10535;50.664;4.564;2022-07-04T09:30:18;23.20;99.90
20750;DHT22;10535;50.664;4.564;2022-07-04T09:32:50;23.30;99.90
20750;DHT22;10535;50.664;4.564;2022-07-04T09:35:24;23.30;99.90
20750;DHT22;10535;50.664;4.564;2022-07-04T09:37:57;23.30;99.90
20750;DHT22;10535;50.664;4.564;2022-07-04T09:40:39;23.20;99.90
20750;DHT22;10535;50.664;4.564;2022-07-04T09:43:24;23.40;99.90
20750;DHT22;10535;50.664;4.564;2022-07-04T09:45:58;23.20;99.90
20750;DHT22;10535;50.664;4.564;2022-07-04T09:48:25;23.30;99.90
20750;DHT22;10535;50.664;4.564;2022-07-04T09:50:51;23.30;99.90
20750;DHT22;10535;50.664;4.564;2022-07-04T09:53:17;22.90;99.90
20750;DHT22;10535;50.664;4.564;2022-07-04T09:55:43;23.00;99.90
20750;DHT22;10535;50.664;4.564;2022-07-04T09:58:12;22.80;99.90
20750;DHT22;10535;50.664;4.564;2022-07-04T10:00:41;22.80;99.90
20750;DHT22;10535;50.664;4.564;2022-07-04T10:03:24;23.00;99.90
20750;DHT22;10535;50.664;4.564;2022-07-04T10:06:11;23.10;99.90
20750;DHT22;10535;50.664;4.564;2022-07-04T10:08:41;22.90;99.90
20750;DHT22;10535;50.664;4.564;2022-07-04T10:11:07;22.80;99.90
20750;DHT22;10535;50.664;4.564;2022-07-04T10:13:33;22.60;99.90
20750;DHT22;10535;50.664;4.564;2022-07-04T10:15:59;22.30;99.90
20750;DHT22;10535;50.664;4.564;2022-07-04T10:18:27;22.20;99.90
20750;DHT22;10535;50.664;4.564;2022-07-04T10:20:54;22.40;99.90
20750;DHT22;10535;50.664;4.564;2022-07-04T10:23:25;22.50;99.90
20750;DHT22;10535;50.664;4.564;2022-07-04T10:26:01;22.60;99.90
20750;DHT22;10535;50.664;4.564;2022-07-04T10:28:27;23.00;99.90
20750;DHT22;10535;50.664;4.564;2022-07-04T10:30:56;22.90;99.90
20750;DHT22;10535;50.664;4.564;2022-07-04T10:33:28;23.20;99.90
20750;DHT22;10535;50.664;4.564;2022-07-04T10:36:01;23.20;99.90
20750;DHT22;10535;50.664;4.564;2022-07-04T10:38:35;23.30;99.90
20750;DHT22;10535;50.664;4.564;2022-07-04T10:41:11;23.60;99.90
20750;DHT22;10535;50.664;4.564;2022-07-04T10:46:36;23.70;99.90
20750;DHT22;10535;50.664;4.564;2022-07-04T10:54:32;23.60;99.90
20750;DHT22;10535;50.664;4.564;2022-07-04T10:57:24;23.40;99.90
20750;DHT22;10535;50.664;4.564;2022-07-04T11:02:33;23.90;99.90
20750;DHT22;10535;50.664;4.564;2022-07-04T11:05:05;24.20;99.90
20750;DHT22;10535;50.664;4.564;2022-07-04T11:13:08;23.90;99.90
20750;DHT22;10535;50.664;4.564;2022-07-04T11:18:13;24.30;99.90
20750;DHT22;10535;50.664;4.564;2022-07-04T11:20:59;24.30;99.90
20750;DHT22;10535;50.664;4.564;2022-07-04T11:23:25;24.40;99.90
20750;DHT22;10535;50.664;4.564;2022-07-04T11:25:55;24.40;99.90
20750;DHT22;10535;50.664;4.564;2022-07-04T11:28:30;24.20;99.90
20750;DHT22;10535;50.664;4.564;2022-07-04T11:31:01;24.40;99.90
20750;DHT22;10535;50.664;4.564;2022-07-04T11:33:30;24.60;99.90
20750;DHT22;10535;50.664;4.564;2022-07-04T11:36:18;24.60;99.90
20750;DHT22;10535;50.664;4.564;2022-07-04T11:39:04;24.50;99.90
20750;DHT22;10535;50.664;4.564;2022-07-04T11:41:33;24.00;99.90
20750;DHT22;10535;50.664;4.564;2022-07-04T11:44:27;23.90;99.90
20750;DHT22;10535;50.664;4.564;2022-07-04T11:52:13;24.20;99.90
20750;DHT22;10535;50.664;4.564;2022-07-04T11:54:50;24.40;99.90
20750;DHT22;10535;50.664;4.564;2022-07-04T11:57:40;24.60;99.90
20750;DHT22;10535;50.664;4.564;2022-07-04T12:00:13;25.00;99.90
20750;DHT22;10535;50.664;4.564;2022-07-04T12:02:40;25.10;99.90
20750;DHT22;10535;50.664;4.564;2022-07-04T12:05:08;25.30;99.90
20750;DHT22;10535;50.664;4.564;2022-07-04T12:07:37;25.60;99.90
20750;DHT22;10535;50.664;4.564;2022-07-04T12:10:23;25.40;99.90
20750;DHT22;10535;50.664;4.564;2022-07-04T12:13:06;25.40;99.90
20750;DHT22;10535;50.664;4.564;2022-07-04T12:15:49;25.30;99.90
20750;DHT22;10535;50.664;4.564;2022-07-04T12:18:27;25.20;99.90
20750;DHT22;10535;50.664;4.564;2022-07-04T12:21:19;25.10;99.90
20750;DHT22;10535;50.664;4.564;2022-07-04T12:24:03;25.10;99.90
20750;DHT22;10535;50.664;4.564;2022-07-04T12:26:50;24.90;99.90
20750;DHT22;10535;50.664;4.564;2022-07-04T12:29:28;25.50;99.90
20750;DHT22;10535;50.664;4.564;2022-07-04T12:31:57;25.50;99.90
20750;DHT22;10535;50.664;4.564;2022-07-04T12:34:45;25.50;99.90
20750;DHT22;10535;50.664;4.564;2022-07-04T12:37:14;25.90;99.90
20750;DHT22;10535;50.664;4.564;2022-07-04T12:40:07;26.00;99.90
20750;DHT22;10535;50.664;4.564;2022-07-04T12:42:34;26.30;99.90
20750;DHT22;10535;50.664;4.564;2022-07-04T12:45:06;26.40;99.90
20750;DHT22;10535;50.664;4.564;2022-07-04T12:47:32;26.70;99.90
20750;DHT22;10535;50.664;4.564;2022-07-04T12:49:58;27.00;99.90
20750;DHT22;10535;50.664;4.564;2022-07-04T12:52:27;27.10;99.90
20750;DHT22;10535;50.664;4.564;2022-07-04T12:55:07;26.70;99.90
20750;DHT22;10535;50.664;4.564;2022-07-04T12:57:49;26.50;99.90
20750;DHT22;10535;50.664;4.564;2022-07-04T13:00:15;26.50;99.90
20750;DHT22;10535;50.664;4.564;2022-07-04T13:02:41;26.10;99.90
20750;DHT22;10535;50.664;4.564;2022-07-04T13:05:07;26.10;99.90
20750;DHT22;10535;50.664;4.564;2022-07-04T13:07:33;25.80;99.90
20750;DHT22;10535;50.664;4.564;2022-07-04T13:10:07;25.40;99.90
20750;DHT22;10535;50.664;4.564;2022-07-04T13:12:33;25.10;99.90
20750;DHT22;10535;50.664;4.564;2022-07-04T13:14:59;24.90;99.90
20750;DHT22;10535;50.664;4.564;2022-07-04T13:17:26;25.10;99.90
20750;DHT22;10535;50.664;4.564;2022-07-04T13:19:55;25.30;99.90
20750;DHT22;10535;50.664;4.564;2022-07-04T13:22:29;25.50;99.90
20750;DHT22;10535;50.664;4.564;2022-07-04T13:25:13;25.60;99.90
20750;DHT22;10535;50.664;4.564;2022-07-04T13:27:48;25.30;99.90
20750;DHT22;10535;50.664;4.564;2022-07-04T13:30:20;25.20;99.90
20750;DHT22;10535;50.664;4.564;2022-07-04T13:32:46;25.30;99.90
20750;DHT22;10535;50.664;4.564;2022-07-04T13:35:15;25.40;99.90
20750;DHT22;10535;50.664;4.564;2022-07-04T13:37:41;25.30;99.90
20750;DHT22;10535;50.664;4.564;2022-07-04T13:40:11;25.50;99.90
20750;DHT22;10535;50.664;4.564;2022-07-04T13:42:36;25.40;99.90
20750;DHT22;10535;50.664;4.564;2022-07-04T13:45:20;24.90;99.90
20750;DHT22;10535;50.664;4.564;2022-07-04T13:47:46;24.70;99.90
20750;DHT22;10535;50.664;4.564;2022-07-04T13:50:12;24.50;99.90
20750;DHT22;10535;50.664;4.564;2022-07-04T13:52:43;24.80;99.90
20750;DHT22;10535;50.664;4.564;2022-07-04T13:55:10;25.10;99.90
20750;DHT22;10535;50.664;4.564;2022-07-04T13:57:43;25.40;99.90
20750;DHT22;10535;50.664;4.564;2022-07-04T14:00:09;25.60;99.90
20750;DHT22;10535;50.664;4.564;2022-07-04T14:02:38;25.90;99.90
20750;DHT22;10535;50.664;4.564;2022-07-04T14:05:04;26.00;99.90
20750;DHT22;10535;50.664;4.564;2022-07-04T14:07:41;26.00;99.90
20750;DHT22;10535;50.664;4.564;2022-07-04T14:10:08;26.00;99.90
20750;DHT22;10535;50.664;4.564;2022-07-04T14:12:34;25.70;99.90
20750;DHT22;10535;50.664;4.564;2022-07-04T14:15:00;25.50;99.90
20750;DHT22;10535;50.664;4.564;2022-07-04T14:17:32;25.40;99.90
20750;DHT22;10535;50.664;4.564;2022-07-04T14:20:00;25.50;99.90
20750;DHT22;10535;50.664;4.564;2022-07-04T14:22:26;25.50;99.90
20750;DHT22;10535;50.664;4.564;2022-07-04T14:24:52;25.50;99.90
20750;DHT22;10535;50.664;4.564;2022-07-04T14:27:19;25.30;99.90
20750;DHT22;10535;50.664;4.564;2022-07-04T14:29:45;25.00;99.90
20750;DHT22;10535;50.664;4.564;2022-07-04T14:32:10;25.00;99.90
20750;DHT22;10535;50.664;4.564;2022-07-04T14:34:36;25.20;99.90
20750;DHT22;10535;50.664;4.564;2022-07-04T14:37:08;25.10;99.90
20750;DHT22;10535;50.664;4.564;2022-07-04T14:39:42;25.50;99.90
20750;DHT22;10535;50.664;4.564;2022-07-04T14:42:10;26.00;99.90
20750;DHT22;10535;50.664;4.564;2022-07-04T14:44:37;25.70;99.90
20750;DHT22;10535;50.664;4.564;2022-07-04T14:47:12;25.90;99.90
20750;DHT22;10535;50.664;4.564;2022-07-04T14:49:42;26.00;99.90
20750;DHT22;10535;50.664;4.564;2022-07-04T14:52:08;26.10;99.90
20750;DHT22;10535;50.664;4.564;2022-07-04T14:54:34;26.30;99.90
20750;DHT22;10535;50.664;4.564;2022-07-04T14:57:20;26.20;99.90
20750;DHT22;10535;50.664;4.564;2022-07-04T14:59:49;26.20;99.90
20750;DHT22;10535;50.664;4.564;2022-07-04T15:02:16;26.30;99.90
20750;DHT22;10535;50.664;4.564;2022-07-04T15:04:46;26.50;99.90
20750;DHT22;10535;50.664;4.564;2022-07-04T15:07:12;26.50;99.90
20750;DHT22;10535;50.664;4.564;2022-07-04T15:09:39;26.50;99.90
20750;DHT22;10535;50.664;4.564;2022-07-04T15:12:05;26.50;99.90
20750;DHT22;10535;50.664;4.564;2022-07-04T15:14:31;26.40;99.90
20750;DHT22;10535;50.664;4.564;2022-07-04T15:17:00;26.40;99.90
20750;DHT22;10535;50.664;4.564;2022-07-04T15:19:47;26.30;99.90
20750;DHT22;10535;50.664;4.564;2022-07-04T15:22:32;26.40;99.90
20750;DHT22;10535;50.664;4.564;2022-07-04T15:25:16;26.40;99.90
20750;DHT22;10535;50.664;4.564;2022-07-04T15:27:41;26.20;99.90
20750;DHT22;10535;50.664;4.564;2022-07-04T15:30:09;26.10;99.90
20750;DHT22;10535;50.664;4.564;2022-07-04T15:32:36;26.10;99.90
20750;DHT22;10535;50.664;4.564;2022-07-04T15:35:02;26.30;99.90
20750;DHT22;10535;50.664;4.564;2022-07-04T15:37:28;26.20;99.90
20750;DHT22;10535;50.664;4.564;2022-07-04T15:39:54;26.10;99.90
20750;DHT22;10535;50.664;4.564;2022-07-04T15:42:23;26.00;99.90
20750;DHT22;10535;50.664;4.564;2022-07-04T15:44:49;26.10;99.90
20750;DHT22;10535;50.664;4.564;2022-07-04T15:47:16;26.10;99.90
20750;DHT22;10535;50.664;4.564;2022-07-04T15:49:42;25.80;99.90
20750;DHT22;10535;50.664;4.564;2022-07-04T15:52:09;25.90;99.90
20750;DHT22;10535;50.664;4.564;2022-07-04T15:54:35;25.80;99.90
20750;DHT22;10535;50.664;4.564;2022-07-04T15:57:08;25.70;99.90
20750;DHT22;10535;50.664;4.564;2022-07-04T15:59:34;25.70;99.90
20750;DHT22;10535;50.664;4.564;2022-07-04T16:02:01;25.50;99.90
20750;DHT22;10535;50.664;4.564;2022-07-04T16:04:36;25.50;99.90
20750;DHT22;10535;50.664;4.564;2022-07-04T16:07:03;25.60;99.90
20750;DHT22;10535;50.664;4.564;2022-07-04T16:09:29;25.40;99.90
20750;DHT22;10535;50.664;4.564;2022-07-04T16:11:55;25.50;99.90
20750;DHT22;10535;50.664;4.564;2022-07-04T16:14:21;25.50;99.90
20750;DHT22;10535;50.664;4.564;2022-07-04T16:16:53;25.50;99.90
20750;DHT22;10535;50.664;4.564;2022-07-04T16:19:25;25.40;99.90
20750;DHT22;10535;50.664;4.564;2022-07-04T16:22:00;25.40;99.90
20750;DHT22;10535;50.664;4.564;2022-07-04T16:24:41;25.50;99.90
20750;DHT22;10535;50.664;4.564;2022-07-04T16:27:08;25.40;99.90
20750;DHT22;10535;50.664;4.564;2022-07-04T16:29:34;25.40;99.90
20750;DHT22;10535;50.664;4.564;2022-07-04T16:32:00;25.10;99.90